»·PEaware :: N333ZS KMRY-KSAC

N333ZS :: KMRY-KSAC

FLIGHT INFORMATION

Flight Status: Arrived
Operator: Privately registered:
United States
More flights under this callsign
Pilot: Judd H. (29974)
Aircraft: CESSNA 182 SKYLANE
(C182)
More flights by this aircraft type
Origin: KMRY Monterey Peninsula
United States
Destination: KSAC Sacramento Executive
United States
More flights between these airports :: More routes between these airports
Route: +MRY5 SHOEY SNS V111 MOD SAC
File this flight plan on PilotEdge
Remarks:
Altitude:
(Current/Filed)
10,000ft
Speed:
(Current/Filed)
170kts
Departed: 07-Oct-20 06:01 PM
Arrived: 07-Oct-20 07:10 PM
Distance/Time
Traveled:
117nm/1:09
Distance/Time
To Go:
Arrived

Flight Plot

Page will automatically refresh every two minutes.

Flight plan parsing failed; only flown route is shown


Map Options




Map Legend


Flown Route
Filed Route
Departure Airport
Arrival Airport
Navaid (VOR, NDB)
Fix

Horizontal Profiles

Position Reports

Time Latitude Longitude Heading Altitude Ground
Speed
07-Oct-20 17:46 36.588868 -121.853437 289 208ft 0kts
07-Oct-20 17:47 36.588869 -121.853438 289 208ft 0kts
07-Oct-20 17:48 36.588869 -121.853440 289 208ft 0kts
07-Oct-20 17:49 36.588869 -121.853441 289 208ft 0kts
07-Oct-20 17:50 36.588870 -121.853442 289 208ft 0kts
07-Oct-20 17:51 36.588870 -121.853444 289 208ft 0kts
07-Oct-20 17:52 36.588870 -121.853445 289 208ft 0kts
07-Oct-20 17:53 36.588871 -121.853446 289 208ft 0kts
07-Oct-20 17:54 36.588871 -121.853448 289 208ft 0kts
07-Oct-20 17:55 36.588872 -121.853449 289 208ft 0kts
07-Oct-20 17:56 36.588872 -121.853451 289 208ft 0kts
07-Oct-20 17:57 36.590120 -121.856376 295 208ft 15kts
07-Oct-20 17:58 36.590748 -121.856718 17 208ft 0kts
07-Oct-20 17:59 36.590749 -121.856717 17 208ft 0kts
07-Oct-20 18:00 36.586932 -121.844269 113 386ft 102kts
07-Oct-20 18:01 36.580355 -121.810017 41 1583ft 105kts
07-Oct-20 18:02 36.606191 -121.815627 333 2713ft 102kts
07-Oct-20 18:03 36.635554 -121.829013 337 3499ft 115kts
07-Oct-20 18:04 36.664597 -121.830116 66 3915ft 131kts
07-Oct-20 18:05 36.666335 -121.789309 100 4615ft 116kts
07-Oct-20 18:06 36.668096 -121.749608 82 5225ft 115kts
07-Oct-20 18:07 36.666573 -121.711783 95 5944ft 106kts
07-Oct-20 18:08 36.664500 -121.669656 93 6046ft 137kts
07-Oct-20 18:09 36.663057 -121.620445 88 6042ft 145kts
07-Oct-20 18:10 36.690722 -121.589000 28 6048ft 142kts
07-Oct-20 18:11 36.723534 -121.565989 27 6035ft 132kts
07-Oct-20 18:12 36.755593 -121.544111 26 6044ft 131kts
07-Oct-20 18:13 36.787797 -121.522062 27 6040ft 132kts
07-Oct-20 18:14 36.820200 -121.499767 26 6037ft 133kts
07-Oct-20 18:15 36.852807 -121.477531 27 6036ft 134kts
07-Oct-20 18:16 36.885809 -121.455723 26 6032ft 134kts
07-Oct-20 18:17 36.918948 -121.434097 26 6032ft 134kts
07-Oct-20 18:18 36.951968 -121.412404 26 6032ft 133kts
07-Oct-20 18:19 36.984940 -121.390765 26 6032ft 133kts
07-Oct-20 18:20 37.017876 -121.369139 26 6032ft 133kts
07-Oct-20 18:21 37.050873 -121.346927 27 6018ft 135kts
07-Oct-20 18:22 37.083968 -121.324415 27 6010ft 136kts
07-Oct-20 18:23 37.117744 -121.301680 26 6005ft 138kts
07-Oct-20 18:24 37.151824 -121.278724 27 6003ft 138kts
07-Oct-20 18:25 37.185711 -121.255956 27 6002ft 138kts
07-Oct-20 18:26 37.220059 -121.233827 25 5994ft 138kts
07-Oct-20 18:27 37.254475 -121.211852 25 5994ft 138kts
07-Oct-20 18:28 37.288102 -121.188680 29 5995ft 138kts
07-Oct-20 18:29 37.316052 -121.168159 29 5994ft 137kts
07-Oct-20 18:30 37.349006 -121.143986 28 5995ft 137kts
07-Oct-20 18:31 37.382134 -121.120249 28 6000ft 136kts
07-Oct-20 18:32 37.415653 -121.098816 25 5997ft 134kts
07-Oct-20 18:33 37.449324 -121.077547 25 5996ft 135kts
07-Oct-20 18:34 37.482965 -121.056157 25 5991ft 136kts
07-Oct-20 18:35 37.517062 -121.034414 25 5985ft 138kts
07-Oct-20 18:36 37.551538 -121.011982 28 5979ft 140kts
07-Oct-20 18:37 37.586218 -120.988584 28 5977ft 142kts
07-Oct-20 18:38 37.621192 -120.965284 28 5974ft 142kts
07-Oct-20 18:39 37.658003 -120.966943 339 5920ft 142kts
07-Oct-20 18:40 37.689929 -120.992343 323 6038ft 135kts
07-Oct-20 18:41 37.721894 -121.018642 324 6040ft 138kts
07-Oct-20 18:42 37.753323 -121.046200 317 6038ft 137kts
07-Oct-20 18:43 37.784116 -121.075221 324 6040ft 138kts
07-Oct-20 18:44 37.817568 -121.099230 328 6041ft 138kts
07-Oct-20 18:45 37.851568 -121.122342 330 6042ft 139kts
07-Oct-20 18:46 37.885613 -121.145531 327 6043ft 139kts
07-Oct-20 18:47 37.919081 -121.170183 326 6043ft 139kts
07-Oct-20 18:48 37.952608 -121.194890 326 6042ft 139kts
07-Oct-20 18:49 37.985974 -121.219338 327 6042ft 139kts
07-Oct-20 18:50 38.019782 -121.243301 328 6042ft 139kts
07-Oct-20 18:51 38.054001 -121.266436 328 6041ft 138kts
07-Oct-20 18:52 38.088073 -121.289117 329 6040ft 138kts
07-Oct-20 18:53 38.121789 -121.312166 323 6038ft 137kts
07-Oct-20 18:54 38.154007 -121.338185 323 6038ft 137kts
07-Oct-20 18:55 38.186752 -121.362872 326 6037ft 136kts
07-Oct-20 18:56 38.219739 -121.387400 325 6036ft 136kts
07-Oct-20 18:57 38.252711 -121.410828 328 6033ft 135kts
07-Oct-20 18:58 38.285936 -121.433957 328 6033ft 135kts
07-Oct-20 18:59 38.319081 -121.456606 327 6034ft 135kts
07-Oct-20 19:00 38.352482 -121.479692 328 5876ft 139kts
07-Oct-20 19:01 38.383374 -121.501075 328 5159ft 118kts
07-Oct-20 19:02 38.412628 -121.489942 43 4494ft 118kts
07-Oct-20 19:03 38.436001 -121.461214 46 3902ft 113kts
07-Oct-20 19:04 38.452431 -121.427059 62 3288ft 115kts
07-Oct-20 19:06 38.474724 -121.404663 311 2535ft 118kts
07-Oct-20 19:07 38.479194 -121.441198 311 1412ft 118kts
07-Oct-20 19:08 38.497442 -121.466599 307 581ft 88kts
07-Oct-20 19:09 38.512946 -121.487714 310 27ft 63kts
07-Oct-20 19:10 38.518118 -121.495214 227 27ft 3kts
07-Oct-20 19:11 38.517766 -121.497226 314 27ft 16kts
07-Oct-20 19:12 38.516915 -121.498166 94 27ft 0kts
07-Oct-20 19:13 38.516926 -121.498133 47 27ft 0kts

Navigation Log

Ident Type
Flight plan parsing failed, navigation log unavailable